Airport ID:KTSP
Update Time (UTC):02 JUN 20 00:21
Wind Speed (Knots):15
Wind Direction (Magnetic):290
Temperature (°C):23
Dew Point (°C):9
Humidity (%):41
Altimeter (inHg):30.07
Density Altitude (Feet):5700
Visibility (Miles):9
Clouds (Hundreds of feet):CLR
Present Weather:NO PRECIPITATION
METAR:METAR KTSP 020020Z AUTO 30014G18KT 10SM CLR 23/09 A3007 RMK AO2

The data displayed is for advisory purposes only and is not to be used for flight planning or operations.